KTOR/TOR METAR and TAF weather

Enter ICAO airport designator
Station Type Date Time Source
KTOR METAR 2019/02/22 22:53 UTC NOAA

KTOR 222253Z AUTO 13004KT 10SM OVC010 M05/M06 A2984 RMK AO2 SLP153 T10501061


Station Type Date Time Source
KTOR Decoded METAR 2019/02/22 22:53 UTC NOAA

TORRINGTON MUNICIPAL AIRPORT, WY, United States (KTOR) 42-03N 104-09W 1277M
Feb 22, 2019 - 05:53 PM EST / 2019.02.22 2253 UTC
Wind: from the SE (130 degrees) at 5 MPH (4 KT):0
Visibility: 10 mile(s):0
Sky conditions: overcast
Temperature: 23.0 F (-5.0 C)
Windchill: 15 F (-9 C):1
Dew Point: 21.0 F (-6.1 C)
Relative Humidity: 91%
Pressure (altimeter): 29.84 in. Hg (1010 hPa)
ob: KTOR 222253Z AUTO 13004KT 10SM OVC010 M05/M06 A2984 RMK AO2 SLP153 T10501061
cycle: 23

Station Type Date Time Source
KTOR TAF UTC NOAA

Error!


Example: see airport list